Time;durP1;ratioP1;P1;durP2;ratioP2;P2;SDS_P1;SDS_P2;PMS_P1;PMS_P2;Temp;Humidity;BMP_temperature;BMP_pressure;BME280_temperature;BME280_humidity;BME280_pressure;Samples;Min_cycle;Max_cycle;Signal;HPM_P1;HPM_P2
2023/08/12 00:00:29;;;;;;;9.77;4.60;;;;;;;;;;5002932;28;20136;-69
2023/08/12 00:02:55;;;;;;;8.38;4.38;;;;;;;;;;5019273;27;20049;-70
2023/08/12 00:05:21;;;;;;;8.15;4.30;;;;;;;;;;5023626;28;20058;-69
2023/08/12 00:07:48;;;;;;;10.52;4.40;;;;;;;;;;5002734;28;20481;-70
2023/08/12 00:10:15;;;;;;;9.48;4.40;;;;;;;;;;4998473;28;20058;-69
2023/08/12 00:12:41;;;;;;;12.95;4.68;;;;;;;;;;5003206;28;20083;-69
2023/08/12 00:15:08;;;;;;;13.07;5.40;;;;;;;;;;4993505;28;20058;-69
2023/08/12 00:17:36;;;;;;;10.05;5.32;;;;;;;;;;5003448;28;20105;-70
2023/08/12 00:20:05;;;;;;;9.55;4.97;;;;;;;;;;5002085;28;20480;-69
2023/08/12 00:22:31;;;;;;;8.13;5.30;;;;;;;;;;5001142;28;20512;-69
2023/08/12 00:24:57;;;;;;;11.85;6.25;;;;;;;;;;5007357;28;20038;-69
2023/08/12 00:27:23;;;;;;;9.40;5.18;;;;;;;;;;5006974;28;20049;-69
2023/08/12 00:29:49;;;;;;;10.07;5.35;;;;;;;;;;5007882;28;20250;-70
2023/08/12 00:32:15;;;;;;;11.32;6.00;;;;;;;;;;4995733;28;20475;-70
2023/08/12 00:34:41;;;;;;;8.15;5.72;;;;;;;;;;4990226;28;20042;-69
2023/08/12 00:37:07;;;;;;;11.98;6.25;;;;;;;;;;4995526;28;20045;-69
2023/08/12 00:39:33;;;;;;;10.90;5.70;;;;;;;;;;4993642;28;20041;-69
2023/08/12 00:41:59;;;;;;;10.60;6.40;;;;;;;;;;5067470;28;20100;-69
2023/08/12 00:44:25;;;;;;;12.10;6.10;;;;;;;;;;5015771;28;20065;-69
2023/08/12 00:46:52;;;;;;;12.45;6.10;;;;;;;;;;5000456;28;20065;-69
2023/08/12 00:49:18;;;;;;;10.57;6.43;;;;;;;;;;5001181;28;20042;-68
2023/08/12 00:51:45;;;;;;;10.88;6.00;;;;;;;;;;4998951;28;20393;-69
2023/08/12 00:54:13;;;;;;;10.95;5.60;;;;;;;;;;4998550;28;20125;-69
2023/08/12 00:56:40;;;;;;;11.82;5.65;;;;;;;;;;5006261;28;20046;-69
2023/08/12 00:59:08;;;;;;;10.73;5.80;;;;;;;;;;5018228;28;20098;-69
2023/08/12 01:01:35;;;;;;;8.63;5.47;;;;;;;;;;4999736;28;20219;-69
2023/08/12 01:04:01;;;;;;;8.65;4.90;;;;;;;;;;4990082;28;20459;-70
2023/08/12 01:06:27;;;;;;;9.57;5.75;;;;;;;;;;5018382;28;20493;-69
2023/08/12 01:08:54;;;;;;;8.00;5.35;;;;;;;;;;5010878;28;20068;-69
2023/08/12 01:11:39;;;;;;;10.43;6.07;;;;;;;;;;5023441;28;20102;-69
2023/08/12 01:14:07;;;;;;;7.95;5.30;;;;;;;;;;5015695;28;20077;-69
2023/08/12 01:16:36;;;;;;;10.55;5.45;;;;;;;;;;5065267;28;20039;-69
2023/08/12 01:19:02;;;;;;;10.60;5.22;;;;;;;;;;5017764;28;20397;-69
2023/08/12 01:21:30;;;;;;;11.70;5.45;;;;;;;;;;5009433;28;20042;-69
2023/08/12 01:23:56;;;;;;;10.25;5.35;;;;;;;;;;5011045;28;20045;-69
2023/08/12 01:26:22;;;;;;;9.93;5.72;;;;;;;;;;5002293;28;20049;-69
2023/08/12 01:28:48;;;;;;;7.68;4.85;;;;;;;;;;5047671;28;20054;-70
2023/08/12 01:31:26;;;;;;;11.38;5.75;;;;;;;;;;5026363;28;20106;-69
2023/08/12 01:33:56;;;;;;;11.15;5.60;;;;;;;;;;5027390;28;20165;-69
2023/08/12 01:36:24;;;;;;;12.23;5.72;;;;;;;;;;5002242;28;20041;-70
2023/08/12 01:38:51;;;;;;;12.43;5.80;;;;;;;;;;4991323;28;20106;-70
2023/08/12 01:41:19;;;;;;;9.00;5.30;;;;;;;;;;5017975;28;20089;-70
2023/08/12 01:43:45;;;;;;;11.10;5.22;;;;;;;;;;5013431;28;20046;-70
2023/08/12 01:46:11;;;;;;;9.27;5.55;;;;;;;;;;5025923;28;20048;-70
2023/08/12 01:48:37;;;;;;;7.93;5.47;;;;;;;;;;5021504;28;20087;-70
2023/08/12 01:51:03;;;;;;;11.65;6.50;;;;;;;;;;4995336;28;20076;-70
2023/08/12 01:53:29;;;;;;;10.95;6.32;;;;;;;;;;5005480;28;20047;-70
2023/08/12 01:55:55;;;;;;;10.55;6.05;;;;;;;;;;5013189;28;20045;-69
2023/08/12 01:58:21;;;;;;;11.82;6.70;;;;;;;;;;5002631;28;20093;-70
2023/08/12 02:00:47;;;;;;;12.98;6.38;;;;;;;;;;5017094;28;20417;-70
2023/08/12 02:03:13;;;;;;;10.77;6.82;;;;;;;;;;5011445;28;20399;-70
2023/08/12 02:05:40;;;;;;;11.32;6.35;;;;;;;;;;5020425;28;20488;-70
2023/08/12 02:08:06;;;;;;;12.13;6.65;;;;;;;;;;5014765;28;20054;-69
2023/08/12 02:10:33;;;;;;;12.90;6.40;;;;;;;;;;5006834;28;20049;-70
2023/08/12 02:12:59;;;;;;;12.77;7.03;;;;;;;;;;5021771;28;20408;-70
2023/08/12 02:15:25;;;;;;;13.57;7.13;;;;;;;;;;5002357;28;20497;-70
2023/08/12 02:17:51;;;;;;;14.95;7.47;;;;;;;;;;5042139;27;20054;-70
2023/08/12 02:20:18;;;;;;;14.68;7.18;;;;;;;;;;4994850;28;20107;-70
2023/08/12 02:22:44;;;;;;;14.50;8.25;;;;;;;;;;5021193;28;20093;-71
2023/08/12 02:25:10;;;;;;;14.25;8.10;;;;;;;;;;5020006;28;20128;-70
2023/08/12 02:27:36;;;;;;;12.32;8.07;;;;;;;;;;5011813;28;20129;-70
2023/08/12 02:30:02;;;;;;;16.27;7.45;;;;;;;;;;5072845;27;20079;-70
2023/08/12 02:32:28;;;;;;;15.65;8.05;;;;;;;;;;5136062;27;20508;-70
2023/08/12 02:34:54;;;;;;;10.82;7.35;;;;;;;;;;5095027;28;20048;-71
2023/08/12 02:37:20;;;;;;;13.00;8.35;;;;;;;;;;5000686;28;20103;-70
2023/08/12 02:39:46;;;;;;;12.48;7.68;;;;;;;;;;5028132;28;20091;-70
2023/08/12 02:42:13;;;;;;;16.52;8.38;;;;;;;;;;5031846;28;20062;-70
2023/08/12 02:44:39;;;;;;;14.45;8.75;;;;;;;;;;5026934;28;20140;-71
2023/08/12 02:47:05;;;;;;;12.35;8.85;;;;;;;;;;5005387;28;20073;-70
2023/08/12 02:49:31;;;;;;;12.60;8.13;;;;;;;;;;5004016;28;20049;-70
2023/08/12 02:51:57;;;;;;;15.48;8.45;;;;;;;;;;5026112;28;20474;-70
2023/08/12 02:54:23;;;;;;;13.63;7.97;;;;;;;;;;5002922;28;20477;-70
2023/08/12 02:56:50;;;;;;;11.95;8.38;;;;;;;;;;5022489;28;20409;-70
2023/08/12 02:59:16;;;;;;;14.48;7.90;;;;;;;;;;5001850;28;20041;-70
2023/08/12 03:01:42;;;;;;;11.93;8.00;;;;;;;;;;5020266;28;20041;-70
2023/08/12 03:04:08;;;;;;;13.55;8.30;;;;;;;;;;5015768;28;20549;-70
2023/08/12 03:06:34;;;;;;;11.60;7.45;;;;;;;;;;5013214;28;20049;-70
2023/08/12 03:09:01;;;;;;;14.95;7.72;;;;;;;;;;5012182;28;20037;-70
2023/08/12 03:11:27;;;;;;;12.75;8.00;;;;;;;;;;5027621;28;20041;-69
2023/08/12 03:13:53;;;;;;;13.32;7.95;;;;;;;;;;5029704;28;20045;-70
2023/08/12 03:16:19;;;;;;;13.50;8.55;;;;;;;;;;5030975;28;20056;-70
2023/08/12 03:18:45;;;;;;;16.83;8.63;;;;;;;;;;5013654;28;20053;-70
2023/08/12 03:21:11;;;;;;;12.43;9.07;;;;;;;;;;5015516;28;20045;-70
2023/08/12 03:23:38;;;;;;;14.45;9.38;;;;;;;;;;5030483;28;20098;-70
2023/08/12 03:26:04;;;;;;;13.30;9.00;;;;;;;;;;5097015;28;20076;-70
2023/08/12 03:28:30;;;;;;;15.98;9.27;;;;;;;;;;5011150;28;20046;-69
2023/08/12 03:30:57;;;;;;;16.02;10.15;;;;;;;;;;5028182;28;20069;-69
2023/08/12 03:33:23;;;;;;;15.35;9.75;;;;;;;;;;5020651;28;20038;-70
2023/08/12 03:35:49;;;;;;;17.25;10.25;;;;;;;;;;5012903;28;20085;-70
2023/08/12 03:38:18;;;;;;;17.95;9.80;;;;;;;;;;5027195;28;20120;-70
2023/08/12 03:40:44;;;;;;;15.27;10.95;;;;;;;;;;5028482;28;20492;-70
2023/08/12 03:43:10;;;;;;;15.95;10.43;;;;;;;;;;5025789;28;20473;-70
2023/08/12 03:45:45;;;;;;;17.52;10.77;;;;;;;;;;5010621;28;20042;-70
2023/08/12 03:48:12;;;;;;;17.58;10.30;;;;;;;;;;5023310;28;20048;-69
2023/08/12 03:50:38;;;;;;;15.95;10.40;;;;;;;;;;5000512;28;20415;-70
2023/08/12 03:53:04;;;;;;;15.20;10.18;;;;;;;;;;5013936;28;20438;-69
2023/08/12 03:55:32;;;;;;;18.05;10.23;;;;;;;;;;4993602;28;20057;-69
2023/08/12 03:57:58;;;;;;;19.30;10.35;;;;;;;;;;5023479;28;20116;-69
2023/08/12 04:00:24;;;;;;;16.17;10.07;;;;;;;;;;5003096;28;20046;-69
2023/08/12 04:02:50;;;;;;;12.85;9.25;;;;;;;;;;5026162;28;20041;-70
2023/08/12 04:05:16;;;;;;;14.05;9.75;;;;;;;;;;5014210;28;20050;-70
2023/08/12 04:07:42;;;;;;;13.18;8.85;;;;;;;;;;5002462;28;20077;-70
2023/08/12 04:10:08;;;;;;;16.58;9.02;;;;;;;;;;4993624;28;20046;-69
2023/08/12 04:12:34;;;;;;;18.58;9.52;;;;;;;;;;5015951;28;20046;-70
2023/08/12 04:15:04;;;;;;;17.17;10.10;;;;;;;;;;5002161;28;20488;-69
2023/08/12 04:17:30;;;;;;;12.95;9.45;;;;;;;;;;5020020;28;20045;-69
2023/08/12 04:19:56;;;;;;;14.30;9.65;;;;;;;;;;4999990;28;20498;-70
2023/08/12 04:22:22;;;;;;;17.77;10.18;;;;;;;;;;5024099;28;20046;-70
2023/08/12 04:24:48;;;;;;;16.30;11.00;;;;;;;;;;5010113;28;20045;-70
2023/08/12 04:27:16;;;;;;;17.65;9.93;;;;;;;;;;5012002;28;20671;-70
2023/08/12 04:29:42;;;;;;;17.98;10.20;;;;;;;;;;5027722;28;20537;-70
2023/08/12 04:32:08;;;;;;;15.45;10.57;;;;;;;;;;5027986;28;20088;-69
2023/08/12 04:34:34;;;;;;;17.15;10.55;;;;;;;;;;5036186;27;20033;-70
2023/08/12 04:37:00;;;;;;;19.25;10.35;;;;;;;;;;5026201;28;20117;-70
2023/08/12 04:39:26;;;;;;;20.38;10.70;;;;;;;;;;5016233;28;20481;-71
2023/08/12 04:41:52;;;;;;;17.92;10.07;;;;;;;;;;4994115;28;20499;-70
2023/08/12 04:44:19;;;;;;;21.33;10.32;;;;;;;;;;4999993;28;20133;-70
2023/08/12 04:46:45;;;;;;;17.92;10.13;;;;;;;;;;5002934;28;20588;-70
2023/08/12 04:49:11;;;;;;;17.95;9.35;;;;;;;;;;5011501;28;20042;-70
2023/08/12 04:51:37;;;;;;;14.77;9.00;;;;;;;;;;4997330;28;20074;-70
2023/08/12 04:54:03;;;;;;;19.30;10.75;;;;;;;;;;4998786;28;20041;-70
2023/08/12 04:56:29;;;;;;;15.18;9.65;;;;;;;;;;5028748;28;20052;-69
2023/08/12 04:58:55;;;;;;;17.15;9.40;;;;;;;;;;5006958;28;20056;-70
2023/08/12 05:01:21;;;;;;;18.40;10.20;;;;;;;;;;5005102;28;20057;-70
2023/08/12 05:03:47;;;;;;;17.17;10.15;;;;;;;;;;5007264;28;20480;-70
2023/08/12 05:06:13;;;;;;;17.52;10.35;;;;;;;;;;5009231;28;20061;-69
2023/08/12 05:08:39;;;;;;;20.65;10.63;;;;;;;;;;5011648;28;20049;-70
2023/08/12 05:11:05;;;;;;;16.67;10.85;;;;;;;;;;4992914;28;20050;-70
2023/08/12 05:13:31;;;;;;;23.30;11.57;;;;;;;;;;4995000;28;20042;-69
2023/08/12 05:15:57;;;;;;;20.67;11.70;;;;;;;;;;5009463;28;20053;-70
2023/08/12 05:18:24;;;;;;;19.08;12.05;;;;;;;;;;4999466;28;20438;-70
2023/08/12 05:20:51;;;;;;;24.15;12.15;;;;;;;;;;5051491;28;20043;-70
2023/08/12 05:23:17;;;;;;;19.77;11.88;;;;;;;;;;5038264;28;20046;-70
2023/08/12 05:25:43;;;;;;;19.42;11.90;;;;;;;;;;5021265;28;20059;-70
2023/08/12 05:28:09;;;;;;;25.90;12.18;;;;;;;;;;5023945;28;20048;-69
2023/08/12 05:30:35;;;;;;;21.15;12.25;;;;;;;;;;5020833;28;20057;-70
2023/08/12 05:33:02;;;;;;;21.10;13.02;;;;;;;;;;5010262;28;20369;-70
2023/08/12 05:35:28;;;;;;;21.02;12.73;;;;;;;;;;5011783;28;20053;-70
2023/08/12 05:37:54;;;;;;;22.23;12.48;;;;;;;;;;5008963;28;20127;-70
2023/08/12 05:40:23;;;;;;;15.60;11.18;;;;;;;;;;5014124;28;20132;-70
2023/08/12 05:42:49;;;;;;;21.48;12.07;;;;;;;;;;4994730;28;20179;-70
2023/08/12 05:45:15;;;;;;;25.10;13.60;;;;;;;;;;5001927;28;20095;-70
2023/08/12 05:47:41;;;;;;;24.60;14.23;;;;;;;;;;5008546;28;20042;-70
2023/08/12 05:50:07;;;;;;;26.58;14.57;;;;;;;;;;5023916;28;20056;-70
2023/08/12 05:52:33;;;;;;;24.67;15.02;;;;;;;;;;5020841;28;20132;-70
2023/08/12 05:54:59;;;;;;;26.13;16.38;;;;;;;;;;5024749;28;20457;-70
2023/08/12 05:57:25;;;;;;;27.48;16.70;;;;;;;;;;5018986;28;20077;-70
2023/08/12 05:59:51;;;;;;;28.25;17.85;;;;;;;;;;5012917;28;20063;-70
2023/08/12 06:02:18;;;;;;;26.65;18.15;;;;;;;;;;5012452;28;20041;-70
2023/08/12 06:04:44;;;;;;;29.63;19.70;;;;;;;;;;5014113;28;20069;-70
2023/08/12 06:07:10;;;;;;;32.85;18.65;;;;;;;;;;5024221;28;20073;-70
2023/08/12 06:09:36;;;;;;;26.77;17.30;;;;;;;;;;5013281;28;20054;-70
2023/08/12 06:12:02;;;;;;;28.88;17.92;;;;;;;;;;4996225;28;20414;-70
2023/08/12 06:14:29;;;;;;;27.75;17.10;;;;;;;;;;4999628;28;20466;-70
2023/08/12 06:16:55;;;;;;;28.52;17.60;;;;;;;;;;4993802;28;20054;-70
2023/08/12 06:19:21;;;;;;;27.48;17.25;;;;;;;;;;5000196;28;20408;-70
2023/08/12 06:21:47;;;;;;;28.55;17.58;;;;;;;;;;5007707;28;20128;-70
2023/08/12 06:24:13;;;;;;;28.55;17.48;;;;;;;;;;5012160;28;20051;-70
2023/08/12 06:26:39;;;;;;;29.27;17.67;;;;;;;;;;5015325;28;20046;-70
2023/08/12 06:29:05;;;;;;;27.15;16.45;;;;;;;;;;5014763;28;20045;-70
2023/08/12 06:31:31;;;;;;;26.58;17.38;;;;;;;;;;5018216;28;20054;-70
2023/08/12 06:33:57;;;;;;;26.33;15.18;;;;;;;;;;5024331;28;20049;-70
2023/08/12 06:36:23;;;;;;;24.85;14.93;;;;;;;;;;5008061;27;20078;-70
2023/08/12 06:38:49;;;;;;;21.73;14.90;;;;;;;;;;5023941;28;20053;-70
2023/08/12 06:41:15;;;;;;;23.05;16.05;;;;;;;;;;5031369;28;20073;-70
2023/08/12 06:43:41;;;;;;;30.45;16.80;;;;;;;;;;5009436;28;20503;-70
2023/08/12 06:46:07;;;;;;;26.60;15.70;;;;;;;;;;5011877;28;20054;-71
2023/08/12 06:48:33;;;;;;;27.83;16.77;;;;;;;;;;5011394;28;20049;-70
2023/08/12 06:50:59;;;;;;;26.20;16.77;;;;;;;;;;5024157;28;20128;-70
2023/08/12 06:53:26;;;;;;;27.70;16.15;;;;;;;;;;5023115;28;20110;-70
2023/08/12 06:55:52;;;;;;;22.67;15.77;;;;;;;;;;5006923;28;20450;-70
2023/08/12 06:58:18;;;;;;;25.35;15.88;;;;;;;;;;5015929;28;20094;-71
2023/08/12 07:00:44;;;;;;;27.73;16.63;;;;;;;;;;5001252;28;20050;-70
2023/08/12 07:03:10;;;;;;;27.00;16.23;;;;;;;;;;5006507;28;20048;-70
2023/08/12 07:05:36;;;;;;;27.83;17.08;;;;;;;;;;5005687;28;20053;-70
2023/08/12 07:08:02;;;;;;;26.63;17.17;;;;;;;;;;5015247;28;20046;-70
2023/08/12 07:10:28;;;;;;;24.40;15.63;;;;;;;;;;5019875;28;20098;-70
2023/08/12 07:12:54;;;;;;;25.30;15.02;;;;;;;;;;5024090;28;20034;-70
2023/08/12 07:15:21;;;;;;;25.50;15.65;;;;;;;;;;5001772;28;20365;-71
2023/08/12 07:17:47;;;;;;;25.85;16.10;;;;;;;;;;5002782;28;20120;-70
2023/08/12 07:20:13;;;;;;;23.80;16.20;;;;;;;;;;5009771;28;20053;-70
2023/08/12 07:22:39;;;;;;;27.40;17.08;;;;;;;;;;5010575;28;20508;-71
2023/08/12 07:25:05;;;;;;;28.58;17.42;;;;;;;;;;5022800;28;20038;-71
2023/08/12 07:27:31;;;;;;;28.95;18.45;;;;;;;;;;5024882;28;20037;-70
2023/08/12 07:29:57;;;;;;;27.10;18.42;;;;;;;;;;4993882;28;20633;-70
2023/08/12 07:32:23;;;;;;;24.90;18.58;;;;;;;;;;5002881;28;20050;-71
2023/08/12 07:34:49;;;;;;;31.70;19.45;;;;;;;;;;5005554;28;20083;-71
2023/08/12 07:37:15;;;;;;;31.05;19.65;;;;;;;;;;5035191;27;20043;-70
2023/08/12 07:39:41;;;;;;;30.77;21.73;;;;;;;;;;5105314;27;20068;-71
2023/08/12 07:42:07;;;;;;;32.05;21.48;;;;;;;;;;5010592;28;20514;-70
2023/08/12 07:44:33;;;;;;;32.28;21.13;;;;;;;;;;4995196;28;20045;-71
2023/08/12 07:46:59;;;;;;;32.97;22.13;;;;;;;;;;5017237;28;20042;-71
2023/08/12 07:49:25;;;;;;;33.60;22.98;;;;;;;;;;5021317;28;20046;-70
2023/08/12 07:51:51;;;;;;;33.03;23.05;;;;;;;;;;5017132;28;20041;-71
2023/08/12 07:54:17;;;;;;;35.20;22.73;;;;;;;;;;5015622;28;20050;-71
2023/08/12 07:56:43;;;;;;;29.70;21.52;;;;;;;;;;5013230;28;20094;-71
2023/08/12 07:59:10;;;;;;;39.30;23.10;;;;;;;;;;5029542;28;20447;-71
2023/08/12 08:01:36;;;;;;;34.67;22.58;;;;;;;;;;5012512;28;20095;-71
2023/08/12 08:04:02;;;;;;;32.75;21.98;;;;;;;;;;5029119;28;20049;-71
2023/08/12 08:06:28;;;;;;;37.90;22.45;;;;;;;;;;5029050;28;20462;-71
2023/08/12 08:08:55;;;;;;;34.03;21.73;;;;;;;;;;4999219;28;20046;-71
2023/08/12 08:11:21;;;;;;;34.38;22.33;;;;;;;;;;5023213;28;20077;-72
2023/08/12 08:13:47;;;;;;;34.83;22.90;;;;;;;;;;5018539;28;20496;-71
2023/08/12 08:16:13;;;;;;;35.17;22.83;;;;;;;;;;5011846;28;20476;-70
2023/08/12 08:18:39;;;;;;;38.35;23.73;;;;;;;;;;5029327;28;20095;-70
2023/08/12 08:21:05;;;;;;;33.28;22.40;;;;;;;;;;5011430;28;20074;-70
2023/08/12 08:23:31;;;;;;;38.10;21.98;;;;;;;;;;5023191;28;20081;-70
2023/08/12 08:25:57;;;;;;;34.97;22.80;;;;;;;;;;5040024;28;20040;-70
2023/08/12 08:28:23;;;;;;;35.83;23.05;;;;;;;;;;5043755;27;20052;-72
2023/08/12 08:30:49;;;;;;;37.60;22.60;;;;;;;;;;5020183;28;20065;-70
2023/08/12 08:33:15;;;;;;;24.95;17.85;;;;;;;;;;5010559;28;20485;-71
2023/08/12 08:35:44;;;;;;;22.20;14.57;;;;;;;;;;5011115;27;20053;-70
2023/08/12 08:38:13;;;;;;;21.38;13.93;;;;;;;;;;5022362;28;20046;-71
2023/08/12 08:40:39;;;;;;;19.23;13.32;;;;;;;;;;5017470;28;20414;-70
2023/08/12 08:43:07;;;;;;;19.88;13.43;;;;;;;;;;5020554;28;20069;-71
2023/08/12 08:45:33;;;;;;;19.15;13.43;;;;;;;;;;5020251;28;20056;-71
2023/08/12 08:48:01;;;;;;;16.30;11.60;;;;;;;;;;5028296;28;20054;-70
2023/08/12 08:50:28;;;;;;;21.35;13.23;;;;;;;;;;5026317;28;20096;-70
2023/08/12 08:52:56;;;;;;;20.88;15.52;;;;;;;;;;5028023;28;20046;-70
2023/08/12 08:55:22;;;;;;;17.92;10.35;;;;;;;;;;5010742;28;20091;-70
2023/08/12 08:57:49;;;;;;;14.32;5.50;;;;;;;;;;5027171;28;20041;-70
2023/08/12 09:00:16;;;;;;;10.20;4.55;;;;;;;;;;5010695;28;20065;-70
2023/08/12 09:02:43;;;;;;;8.38;4.18;;;;;;;;;;5027996;28;20451;-70
2023/08/12 09:05:09;;;;;;;11.48;5.13;;;;;;;;;;5009482;28;20119;-70
2023/08/12 09:07:36;;;;;;;8.38;4.45;;;;;;;;;;5007491;28;20808;-70
2023/08/12 09:10:03;;;;;;;8.43;4.13;;;;;;;;;;5007435;28;20137;-70
2023/08/12 09:12:30;;;;;;;10.52;4.80;;;;;;;;;;5006994;28;20053;-69
2023/08/12 09:14:56;;;;;;;7.95;3.88;;;;;;;;;;5010127;28;20049;-69
2023/08/12 09:17:22;;;;;;;10.05;3.45;;;;;;;;;;5003094;28;20114;-70
2023/08/12 09:19:48;;;;;;;7.45;3.20;;;;;;;;;;5041661;28;20071;-70
2023/08/12 09:22:14;;;;;;;6.63;3.05;;;;;;;;;;5070096;27;20047;-70
2023/08/12 09:24:40;;;;;;;7.10;2.65;;;;;;;;;;5002327;28;20045;-69
2023/08/12 09:27:06;;;;;;;8.52;2.72;;;;;;;;;;5015831;28;20079;-70
2023/08/12 09:29:32;;;;;;;7.43;3.33;;;;;;;;;;5016450;28;20477;-70
2023/08/12 09:32:14;;;;;;;10.68;3.20;;;;;;;;;;5021132;28;20094;-69
2023/08/12 09:34:56;;;;;;;10.07;3.00;;;;;;;;;;5007020;28;20053;-69
2023/08/12 09:37:23;;;;;;;7.72;2.83;;;;;;;;;;5009067;28;20132;-70
2023/08/12 09:39:50;;;;;;;10.00;3.47;;;;;;;;;;5008921;28;20046;-70
2023/08/12 09:42:16;;;;;;;8.05;3.33;;;;;;;;;;5011926;28;20154;-70
2023/08/12 09:44:42;;;;;;;12.60;3.63;;;;;;;;;;5015076;28;20045;-70
2023/08/12 09:47:08;;;;;;;8.10;3.47;;;;;;;;;;5027748;28;20044;-70
2023/08/12 09:49:35;;;;;;;14.60;3.83;;;;;;;;;;5008848;28;20122;-70
2023/08/12 09:52:02;;;;;;;11.68;4.00;;;;;;;;;;5004728;28;20049;-69
2023/08/12 09:54:28;;;;;;;9.23;3.92;;;;;;;;;;5018819;28;20045;-69
2023/08/12 09:56:59;;;;;;;14.25;4.55;;;;;;;;;;4997435;28;20051;-69
2023/08/12 09:59:27;;;;;;;10.80;4.13;;;;;;;;;;4995941;28;20052;-69
2023/08/12 10:01:54;;;;;;;13.02;4.07;;;;;;;;;;5019635;28;20461;-69
2023/08/12 10:04:23;;;;;;;14.95;3.95;;;;;;;;;;5000127;28;20057;-69
2023/08/12 10:06:49;;;;;;;14.50;4.05;;;;;;;;;;5013162;28;20042;-69
2023/08/12 10:09:16;;;;;;;15.85;3.80;;;;;;;;;;4996277;28;20394;-70
2023/08/12 10:11:43;;;;;;;10.40;4.10;;;;;;;;;;5000539;28;20099;-69
2023/08/12 10:14:10;;;;;;;11.50;4.00;;;;;;;;;;5022361;28;20142;-69
2023/08/12 10:16:36;;;;;;;12.93;3.75;;;;;;;;;;5004985;28;20054;-69
2023/08/12 10:19:05;;;;;;;7.55;3.00;;;;;;;;;;5027116;28;20044;-69
2023/08/12 10:21:31;;;;;;;6.40;3.10;;;;;;;;;;4997118;28;20061;-69
2023/08/12 10:23:58;;;;;;;4.30;2.50;;;;;;;;;;5014659;28;20041;-69
2023/08/12 10:26:25;;;;;;;3.80;2.13;;;;;;;;;;5024400;28;20056;-70
2023/08/12 10:28:51;;;;;;;5.00;2.35;;;;;;;;;;5030164;28;20133;-70
2023/08/12 10:31:19;;;;;;;4.30;2.47;;;;;;;;;;5007943;28;20132;-70
2023/08/12 10:33:48;;;;;;;5.85;2.38;;;;;;;;;;5010650;28;20061;-69
2023/08/12 10:36:15;;;;;;;3.35;2.25;;;;;;;;;;5024419;28;20382;-69
2023/08/12 10:38:41;;;;;;;5.50;2.50;;;;;;;;;;5015983;28;20038;-70
2023/08/12 10:41:17;;;;;;;5.95;2.55;;;;;;;;;;4993514;28;20136;-70
2023/08/12 10:44:03;;;;;;;6.93;2.80;;;;;;;;;;5001129;28;20088;-70
2023/08/12 10:46:30;;;;;;;4.78;2.65;;;;;;;;;;5030785;28;20050;-69
2023/08/12 10:49:09;;;;;;;7.28;2.95;;;;;;;;;;5011514;28;20055;-70
2023/08/12 10:51:54;;;;;;;7.03;2.55;;;;;;;;;;5030556;28;20045;-69
2023/08/12 10:54:21;;;;;;;5.40;2.97;;;;;;;;;;5028422;28;20057;-70
2023/08/12 10:57:03;;;;;;;5.93;3.13;;;;;;;;;;5025729;28;20424;-70
2023/08/12 10:59:52;;;;;;;10.88;3.50;;;;;;;;;;4992190;28;20045;-70
2023/08/12 11:02:20;;;;;;;10.63;3.38;;;;;;;;;;4993700;28;20058;-70
2023/08/12 11:04:50;;;;;;;12.23;3.47;;;;;;;;;;5009353;28;20062;-69
2023/08/12 11:07:16;;;;;;;8.70;3.63;;;;;;;;;;5023145;28;20050;-69
2023/08/12 11:09:43;;;;;;;8.23;3.10;;;;;;;;;;5028976;28;20050;-70
2023/08/12 11:12:09;;;;;;;7.47;3.30;;;;;;;;;;5017801;28;20054;-69
2023/08/12 11:14:48;;;;;;;9.55;3.53;;;;;;;;;;5011055;28;20174;-69
2023/08/12 11:17:15;;;;;;;7.93;3.70;;;;;;;;;;5017403;28;20057;-70
2023/08/12 11:19:42;;;;;;;8.20;3.63;;;;;;;;;;5030414;28;20453;-69
2023/08/12 11:22:09;;;;;;;7.22;3.60;;;;;;;;;;5027047;28;20052;-70
2023/08/12 11:24:36;;;;;;;10.48;3.70;;;;;;;;;;5013269;28;20045;-70
2023/08/12 11:27:03;;;;;;;9.95;3.72;;;;;;;;;;5029926;28;20049;-70
2023/08/12 11:29:29;;;;;;;10.35;3.83;;;;;;;;;;5029651;28;20041;-69
2023/08/12 11:31:55;;;;;;;8.48;3.50;;;;;;;;;;5029956;28;20041;-69
2023/08/12 11:34:21;;;;;;;11.20;3.67;;;;;;;;;;5030851;28;20132;-70
2023/08/12 11:36:47;;;;;;;10.73;4.20;;;;;;;;;;5029908;28;20491;-70
2023/08/12 11:39:13;;;;;;;8.75;3.75;;;;;;;;;;5011878;28;20085;-69
2023/08/12 11:41:39;;;;;;;10.70;3.70;;;;;;;;;;5028836;28;20477;-70
2023/08/12 11:44:05;;;;;;;11.73;4.32;;;;;;;;;;5028339;28;20064;-70
2023/08/12 11:46:34;;;;;;;7.43;3.38;;;;;;;;;;5029633;28;20048;-70
2023/08/12 11:49:00;;;;;;;10.75;4.03;;;;;;;;;;5012445;28;20049;-70
2023/08/12 11:51:26;;;;;;;8.18;3.45;;;;;;;;;;5029609;28;20052;-70
2023/08/12 11:53:53;;;;;;;11.25;3.60;;;;;;;;;;5029140;28;20518;-70
2023/08/12 11:56:20;;;;;;;12.20;4.35;;;;;;;;;;5001253;28;20050;-69
2023/08/12 11:58:50;;;;;;;13.93;4.47;;;;;;;;;;4991682;28;20057;-70
2023/08/12 12:01:16;;;;;;;12.25;4.43;;;;;;;;;;5010693;28;20057;-69
2023/08/12 12:03:42;;;;;;;12.50;4.38;;;;;;;;;;5010332;28;20133;-69
2023/08/12 12:06:08;;;;;;;13.07;4.40;;;;;;;;;;5005660;28;20544;-69
2023/08/12 12:08:34;;;;;;;13.70;4.75;;;;;;;;;;5016240;28;20054;-69
2023/08/12 12:11:04;;;;;;;15.48;4.70;;;;;;;;;;5014133;28;20045;-70
2023/08/12 12:13:30;;;;;;;11.27;4.30;;;;;;;;;;5011490;28;20087;-70
2023/08/12 12:15:57;;;;;;;9.45;4.35;;;;;;;;;;5029653;28;20458;-69
2023/08/12 12:18:26;;;;;;;11.90;4.68;;;;;;;;;;5007872;28;20404;-69
2023/08/12 12:20:58;;;;;;;10.27;4.55;;;;;;;;;;5029123;28;20038;-69
2023/08/12 12:23:31;;;;;;;9.63;4.10;;;;;;;;;;5030167;28;20056;-69
2023/08/12 12:25:57;;;;;;;15.43;4.60;;;;;;;;;;5011856;28;20411;-70
2023/08/12 12:28:23;;;;;;;14.13;4.70;;;;;;;;;;5017160;28;20041;-69
2023/08/12 12:30:49;;;;;;;7.60;3.83;;;;;;;;;;5029608;28;20180;-70
2023/08/12 12:33:16;;;;;;;12.23;3.92;;;;;;;;;;5027852;28;20509;-70
2023/08/12 12:35:41;;;;;;;9.82;3.38;;;;;;;;;;5029576;28;20045;-70
2023/08/12 12:38:08;;;;;;;10.90;4.07;;;;;;;;;;5029232;28;20086;-69
2023/08/12 12:40:34;;;;;;;9.18;3.50;;;;;;;;;;5028701;28;20484;-70
2023/08/12 12:43:00;;;;;;;11.98;4.18;;;;;;;;;;5024560;28;20064;-69
2023/08/12 12:45:26;;;;;;;12.27;4.18;;;;;;;;;;5029787;28;20045;-69
2023/08/12 12:47:52;;;;;;;11.48;3.88;;;;;;;;;;5002802;28;20392;-70
2023/08/12 12:50:18;;;;;;;9.80;3.70;;;;;;;;;;5029799;28;20057;-70
2023/08/12 12:52:44;;;;;;;10.63;3.95;;;;;;;;;;5011552;28;20041;-70
2023/08/12 12:55:10;;;;;;;12.60;4.28;;;;;;;;;;5014807;28;20054;-70
2023/08/12 12:57:36;;;;;;;10.63;3.78;;;;;;;;;;5015514;28;20042;-70
2023/08/12 13:00:04;;;;;;;11.25;3.92;;;;;;;;;;5028578;28;20508;-70
2023/08/12 13:02:30;;;;;;;13.45;3.78;;;;;;;;;;5026951;28;20081;-70
2023/08/12 13:04:56;;;;;;;11.70;4.18;;;;;;;;;;5029155;28;20105;-70
2023/08/12 13:07:22;;;;;;;10.23;4.10;;;;;;;;;;5028359;28;20053;-70
2023/08/12 13:09:48;;;;;;;10.25;3.92;;;;;;;;;;5010605;28;20400;-70
2023/08/12 13:12:14;;;;;;;12.45;4.78;;;;;;;;;;5010921;28;20049;-70
2023/08/12 13:14:40;;;;;;;13.93;4.07;;;;;;;;;;5029201;28;20481;-70
2023/08/12 13:17:06;;;;;;;10.45;3.90;;;;;;;;;;5027445;28;20090;-70
2023/08/12 13:19:32;;;;;;;14.57;4.63;;;;;;;;;;5028389;28;20041;-70
2023/08/12 13:21:58;;;;;;;10.18;4.68;;;;;;;;;;5029104;28;20094;-69
2023/08/12 13:24:24;;;;;;;12.38;4.43;;;;;;;;;;5009281;28;20094;-69
2023/08/12 13:26:52;;;;;;;9.82;4.10;;;;;;;;;;5011134;28;20049;-70
2023/08/12 13:29:18;;;;;;;10.18;4.05;;;;;;;;;;5028938;28;20045;-70
2023/08/12 13:31:44;;;;;;;12.85;4.40;;;;;;;;;;5024641;28;20072;-70
2023/08/12 13:34:10;;;;;;;10.95;4.20;;;;;;;;;;5008652;28;20783;-70
2023/08/12 13:36:36;;;;;;;16.20;4.50;;;;;;;;;;5006554;28;20057;-70
2023/08/12 13:39:02;;;;;;;12.25;4.40;;;;;;;;;;5014888;28;20038;-70
2023/08/12 13:41:28;;;;;;;14.50;4.53;;;;;;;;;;5009056;28;20053;-70
2023/08/12 13:43:54;;;;;;;11.48;4.70;;;;;;;;;;5008086;28;20058;-70
2023/08/12 13:46:20;;;;;;;11.20;3.88;;;;;;;;;;5007692;28;20049;-70
2023/08/12 13:48:46;;;;;;;14.20;4.43;;;;;;;;;;5032348;28;20056;-70
2023/08/12 13:51:12;;;;;;;12.27;4.03;;;;;;;;;;5030325;28;20053;-70
2023/08/12 13:53:38;;;;;;;9.35;3.90;;;;;;;;;;5028258;28;20121;-71
2023/08/12 13:56:04;;;;;;;14.27;4.28;;;;;;;;;;5012360;28;20049;-70
2023/08/12 13:58:30;;;;;;;10.95;3.88;;;;;;;;;;4993828;28;20076;-70
2023/08/12 14:00:57;;;;;;;10.00;3.92;;;;;;;;;;5012216;28;20516;-70
2023/08/12 14:03:23;;;;;;;13.35;4.10;;;;;;;;;;5030265;28;20041;-70
2023/08/12 14:05:49;;;;;;;10.85;4.22;;;;;;;;;;5012114;28;20180;-70
2023/08/12 14:08:15;;;;;;;9.93;3.95;;;;;;;;;;5032298;28;20228;-70
2023/08/12 14:10:41;;;;;;;9.05;3.78;;;;;;;;;;5028911;28;20049;-70
2023/08/12 14:13:07;;;;;;;10.35;3.83;;;;;;;;;;5030536;28;20044;-70
2023/08/12 14:15:33;;;;;;;10.35;4.05;;;;;;;;;;5031689;28;20077;-71
2023/08/12 14:17:59;;;;;;;11.75;4.15;;;;;;;;;;5014411;28;20128;-70
2023/08/12 14:20:26;;;;;;;10.50;3.80;;;;;;;;;;5012208;28;20653;-70
2023/08/12 14:22:52;;;;;;;10.85;4.00;;;;;;;;;;5013009;28;20042;-70
2023/08/12 14:25:18;;;;;;;10.00;3.63;;;;;;;;;;5012102;28;20053;-70